Weather at Glasgow Prestwick Airport

Public forecast

Using degrees Celsius for public forecast. Weather courtesy of forecast.io.

Current aviation weather report (METAR) for Glasgow Prestwick Airport

Retrieved 2022/05/23 02:20 UTC (14 minutes ago):

EGPK 230220Z 19005KT 9999 FEW027 OVC034 10/08 Q1001

Aviation forecast (TAF) for Glasgow Prestwick Airport

Retrieved 2022-05-23 00:00 UTC (3 hours ago):

TAF EGPK 222254Z 2300/2324 19006KT 9999 SCT026 PROB30 TEMPO 2302/2307 8000 -RA BKN012 BECMG 2306/2309 29010KT TEMPO 2307/2311 8000 -RA BKN012 PROB30 TEMPO 2307/2310 BKN008 PROB30 TEMPO 2311/2318 6000 SHRA